createdAt,value
2023-02-18T00:01:37.497Z,10.50
2023-02-18T00:04:07.028Z,10.50
2023-02-18T00:06:37.058Z,10.50
2023-02-18T00:09:06.468Z,10.50
2023-02-18T00:11:39.631Z,10.60
2023-02-18T00:14:12.919Z,10.50
2023-02-18T00:16:41.219Z,10.60
2023-02-18T00:19:14.265Z,10.60
2023-02-18T00:21:42.484Z,10.60
2023-02-18T00:24:12.545Z,10.60
2023-02-18T00:26:40.630Z,10.60
2023-02-18T00:29:08.936Z,10.60
2023-02-18T00:31:38.666Z,10.60
2023-02-18T00:34:07.020Z,10.60
2023-02-18T00:36:36.920Z,10.60
2023-02-18T00:39:09.568Z,10.60
2023-02-18T00:41:38.407Z,10.70
2023-02-18T00:44:07.180Z,10.70
2023-02-18T00:46:36.203Z,10.70
2023-02-18T00:49:05.206Z,10.60
2023-02-18T00:51:33.284Z,10.60
2023-02-18T00:54:02.920Z,10.70
2023-02-18T00:56:30.994Z,10.70
2023-02-18T00:58:59.057Z,10.70
2023-02-18T01:01:28.000Z,10.70
2023-02-18T01:03:56.140Z,10.70
2023-02-18T01:06:24.261Z,10.70
2023-02-18T01:08:52.368Z,10.70
2023-02-18T01:11:21.939Z,10.70
2023-02-18T01:13:50.350Z,10.80
2023-02-18T01:16:18.704Z,10.70
2023-02-18T01:18:46.909Z,10.80
2023-02-18T01:21:15.097Z,10.70
2023-02-18T01:23:43.677Z,10.80
2023-02-18T01:26:12.470Z,10.80
2023-02-18T01:28:42.788Z,10.80
2023-02-18T01:31:13.708Z,10.90
2023-02-18T01:33:42.616Z,10.90
2023-02-18T01:36:12.066Z,10.90
2023-02-18T01:38:40.725Z,10.90
2023-02-18T01:41:09.192Z,10.90
2023-02-18T01:43:37.809Z,10.90
2023-02-18T01:46:14.121Z,10.90
2023-02-18T01:48:45.225Z,10.90
2023-02-18T01:51:15.906Z,10.80
2023-02-18T01:53:51.953Z,10.90
2023-02-18T01:56:27.081Z,10.90
2023-02-18T01:58:58.019Z,10.80
2023-02-18T02:01:28.468Z,10.90
2023-02-18T02:03:56.952Z,10.90
2023-02-18T02:06:26.162Z,10.90
2023-02-18T02:08:57.579Z,11.00
2023-02-18T02:11:36.314Z,11.00
2023-02-18T02:14:20.653Z,11.00
2023-02-18T02:16:58.430Z,11.10
2023-02-18T02:20:08.283Z,11.10
2023-02-18T02:23:12.050Z,11.00
2023-02-18T02:26:12.374Z,11.00
2023-02-18T02:29:02.418Z,10.90
2023-02-18T02:31:48.104Z,10.90
2023-02-18T02:34:38.775Z,10.90
2023-02-18T02:37:15.537Z,10.80
2023-02-18T02:39:56.598Z,10.90
2023-02-18T02:42:33.117Z,10.90
2023-02-18T02:45:07.574Z,11.00
2023-02-18T02:47:45.321Z,11.00
2023-02-18T02:50:22.188Z,10.90
2023-02-18T02:52:54.424Z,10.90
2023-02-18T02:55:22.686Z,10.90
2023-02-18T02:57:53.069Z,10.90
2023-02-18T03:08:39.978Z,10.90
2023-02-18T03:11:11.805Z,11.00
2023-02-18T03:13:54.935Z,10.90
2023-02-18T03:16:28.880Z,11.00
2023-02-18T03:19:04.352Z,10.90
2023-02-18T03:21:36.435Z,10.90
2023-02-18T03:24:11.535Z,10.90
2023-02-18T03:26:44.753Z,10.90
2023-02-18T03:29:15.458Z,10.90
2023-02-18T03:31:47.753Z,10.90
2023-02-18T03:34:19.798Z,10.80
2023-02-18T03:36:48.376Z,10.90
2023-02-18T03:39:19.731Z,10.90
2023-02-18T03:41:48.000Z,10.80
2023-02-18T03:44:16.368Z,10.80
2023-02-18T03:46:45.568Z,10.80
2023-02-18T04:04:37.855Z,10.70
2023-02-18T04:07:05.993Z,10.70
2023-02-18T04:09:34.074Z,10.70
2023-02-18T04:12:02.167Z,10.70
2023-02-18T04:14:30.251Z,10.70
2023-02-18T04:16:58.313Z,10.70
2023-02-18T04:19:26.440Z,10.60
2023-02-18T04:21:55.875Z,10.70
2023-02-18T04:24:23.932Z,10.60
2023-02-18T04:26:52.046Z,10.60
2023-02-18T04:29:20.162Z,10.60
2023-02-18T04:31:48.288Z,10.60
2023-02-18T04:34:16.360Z,10.60
2023-02-18T04:36:44.449Z,10.60
2023-02-18T04:39:14.000Z,10.60
2023-02-18T04:41:42.103Z,10.60
2023-02-18T04:44:10.170Z,10.60
2023-02-18T04:46:38.462Z,10.60
2023-02-18T04:49:06.604Z,10.60
2023-02-18T04:51:34.699Z,10.60
2023-02-18T04:54:02.762Z,10.60
2023-02-18T04:56:32.186Z,10.50
2023-02-18T04:59:00.323Z,10.60
2023-02-18T05:01:28.455Z,10.60
2023-02-18T05:03:56.654Z,10.60
2023-02-18T05:06:24.804Z,10.60
2023-02-18T05:08:52.904Z,10.60
2023-02-18T05:11:21.018Z,10.60
2023-02-18T05:13:50.473Z,10.60
2023-02-18T05:16:18.551Z,10.60
2023-02-18T05:18:46.623Z,10.50
2023-02-18T05:21:14.788Z,10.60
2023-02-18T05:23:42.894Z,10.60
2023-02-18T05:26:11.339Z,10.60
2023-02-18T05:28:39.518Z,10.60
2023-02-18T05:31:09.013Z,10.60
2023-02-18T05:33:37.228Z,10.60
2023-02-18T05:36:06.189Z,10.60
2023-02-18T05:38:34.294Z,10.50
2023-02-18T05:41:03.053Z,10.50
2023-02-18T05:43:31.255Z,10.50
2023-02-18T05:45:59.382Z,10.50
2023-02-18T05:48:28.884Z,10.50
2023-02-18T05:50:56.953Z,10.50
2023-02-18T05:53:25.041Z,10.50
2023-02-18T05:55:53.142Z,10.50
2023-02-18T05:58:21.330Z,10.50
2023-02-18T06:00:49.444Z,10.50
2023-02-18T06:03:17.527Z,10.50
2023-02-18T06:05:50.330Z,10.50
2023-02-18T06:08:20.080Z,10.50
2023-02-18T06:10:48.409Z,10.40
2023-02-18T06:13:16.603Z,10.50
2023-02-18T06:15:44.828Z,10.50
2023-02-18T06:18:13.017Z,10.40
2023-02-18T06:20:41.990Z,10.50
2023-02-18T06:23:11.758Z,10.50
2023-02-18T06:25:39.918Z,10.40
2023-02-18T06:28:08.107Z,10.50
2023-02-18T06:30:36.452Z,10.50
2023-02-18T06:33:04.976Z,10.40
2023-02-18T06:35:33.542Z,10.40
2023-02-18T06:38:01.835Z,10.40
2023-02-18T06:40:31.740Z,10.40
2023-02-18T06:42:59.841Z,10.40
2023-02-18T06:45:28.294Z,10.40
2023-02-18T06:47:57.594Z,10.40
2023-02-18T06:50:25.728Z,10.40
2023-02-18T06:52:53.839Z,10.40
2023-02-18T06:55:21.936Z,10.40
2023-02-18T06:57:51.455Z,10.40
2023-02-18T07:00:20.197Z,10.40
2023-02-18T07:02:48.365Z,10.40
2023-02-18T07:05:16.742Z,10.30
2023-02-18T07:07:44.957Z,10.30
2023-02-18T07:10:13.630Z,10.30
2023-02-18T07:12:41.736Z,10.30
2023-02-18T07:15:12.078Z,10.30
2023-02-18T07:17:40.430Z,10.30
2023-02-18T07:20:09.912Z,10.30
2023-02-18T07:22:38.049Z,10.20
2023-02-18T07:25:06.578Z,10.30
2023-02-18T07:27:34.795Z,10.30
2023-02-18T07:30:02.962Z,10.30
2023-02-18T07:32:32.927Z,10.30
2023-02-18T07:35:01.031Z,10.30
2023-02-18T07:37:29.275Z,10.30
2023-02-18T07:39:57.499Z,10.20
2023-02-18T07:42:25.844Z,10.30
2023-02-18T07:44:54.072Z,10.30
2023-02-18T07:47:22.915Z,10.30
2023-02-18T07:49:52.397Z,10.40
2023-02-18T07:52:20.504Z,10.30
2023-02-18T07:54:48.848Z,10.30
2023-02-18T07:57:17.047Z,10.30
2023-02-18T07:59:45.136Z,10.20
2023-02-18T08:02:20.358Z,10.30
2023-02-18T08:04:49.310Z,10.30
2023-02-18T08:07:20.712Z,10.20
2023-02-18T08:09:50.809Z,10.20
2023-02-18T08:12:19.241Z,10.20
2023-02-18T08:14:47.396Z,10.20
2023-02-18T08:17:15.516Z,10.20
2023-02-18T08:19:43.736Z,10.20
2023-02-18T08:22:11.852Z,10.20
2023-02-18T08:24:41.393Z,10.20
2023-02-18T08:27:09.511Z,10.20
2023-02-18T08:29:37.645Z,10.30
2023-02-18T08:32:06.146Z,10.40
2023-02-18T08:34:34.307Z,10.40
2023-02-18T08:37:03.601Z,10.50
2023-02-18T08:39:35.530Z,10.60
2023-02-18T08:42:05.492Z,10.50
2023-02-18T08:44:33.619Z,10.50
2023-02-18T08:47:01.780Z,10.60
2023-02-18T08:49:29.960Z,10.50
2023-02-18T08:51:58.657Z,10.50
2023-02-18T08:54:26.799Z,10.50
2023-02-18T08:56:57.740Z,10.40
2023-02-18T08:59:27.457Z,10.40
2023-02-18T09:01:55.694Z,10.30
2023-02-18T09:04:23.939Z,10.30
2023-02-18T09:06:52.115Z,10.30
2023-02-18T09:09:20.268Z,10.30
2023-02-18T09:11:48.520Z,10.30
2023-02-18T09:14:16.819Z,10.30
2023-02-18T09:16:46.452Z,10.30
2023-02-18T09:19:14.622Z,10.20
2023-02-18T09:21:42.721Z,10.20
2023-02-18T09:24:10.950Z,10.10
2023-02-18T09:26:40.335Z,10.10
2023-02-18T09:29:08.440Z,10.20
2023-02-18T09:31:38.126Z,10.10
2023-02-18T09:34:07.754Z,10.10
2023-02-18T09:36:35.963Z,10.00
2023-02-18T09:39:04.084Z,9.90
2023-02-18T09:41:40.319Z,9.90
2023-02-18T09:44:14.648Z,9.90
2023-02-18T09:46:49.920Z,9.90
2023-02-18T09:49:24.242Z,9.90
2023-02-18T09:51:53.262Z,9.80
2023-02-18T09:54:22.705Z,9.90
2023-02-18T09:56:53.103Z,9.90
2023-02-18T09:59:24.062Z,9.90
2023-02-18T10:01:54.654Z,9.90
2023-02-18T10:04:30.309Z,9.90
2023-02-18T10:06:59.758Z,10.00
2023-02-18T10:09:34.366Z,10.00
2023-02-18T10:12:12.348Z,10.00
2023-02-18T10:14:40.499Z,10.00
2023-02-18T10:17:09.627Z,10.10
2023-02-18T10:19:41.418Z,10.00
2023-02-18T10:22:14.695Z,10.10
2023-02-18T10:24:47.164Z,10.10
2023-02-18T10:27:22.341Z,10.10
2023-02-18T10:29:51.034Z,10.10
2023-02-18T10:32:23.810Z,10.20
2023-02-18T10:35:01.043Z,10.30
2023-02-18T10:37:55.965Z,10.20
2023-02-18T10:40:30.940Z,10.20
2023-02-18T10:43:08.022Z,10.20
2023-02-18T10:45:45.580Z,10.20
2023-02-18T10:48:29.477Z,10.20
2023-02-18T10:51:02.948Z,10.20
2023-02-18T10:53:35.531Z,10.30
2023-02-18T10:56:04.317Z,10.30
2023-02-18T10:58:35.040Z,10.30
2023-02-18T11:01:08.565Z,10.30
2023-02-18T11:03:43.174Z,10.20
2023-02-18T11:06:22.869Z,10.20
2023-02-18T11:08:51.822Z,10.10
2023-02-18T11:11:26.552Z,10.00
2023-02-18T11:13:55.866Z,10.00
2023-02-18T11:16:25.074Z,10.00
2023-02-18T11:18:56.011Z,10.00
2023-02-18T11:21:34.420Z,10.00
2023-02-18T11:24:09.473Z,10.00
2023-02-18T11:26:40.145Z,10.00
2023-02-18T11:29:16.377Z,10.00
2023-02-18T11:31:47.304Z,10.10
2023-02-18T11:34:18.526Z,10.20
2023-02-18T11:36:49.710Z,10.20
2023-02-18T11:39:22.363Z,10.20
2023-02-18T11:41:57.039Z,10.30
2023-02-18T11:44:30.950Z,10.40
2023-02-18T11:47:02.507Z,10.50
2023-02-18T11:49:31.313Z,10.60
2023-02-18T11:52:15.553Z,10.70
2023-02-18T11:54:43.754Z,10.90
2023-02-18T11:57:15.447Z,11.00
2023-02-18T11:59:44.844Z,11.00
2023-02-18T12:02:29.109Z,11.10
2023-02-18T12:05:02.638Z,11.20
2023-02-18T12:07:42.499Z,11.20
2023-02-18T12:10:16.721Z,11.20
2023-02-18T12:12:49.391Z,11.10
2023-02-18T12:15:22.528Z,11.10
2023-02-18T12:18:05.772Z,11.10
2023-02-18T12:20:48.505Z,11.10
2023-02-18T12:23:28.841Z,11.20
2023-02-18T12:26:04.056Z,11.10
2023-02-18T12:28:58.551Z,11.20
2023-02-18T12:31:48.864Z,11.30
2023-02-18T12:34:37.521Z,11.50
2023-02-18T12:37:30.434Z,11.60
2023-02-18T12:40:16.816Z,11.70
2023-02-18T12:42:55.669Z,11.80
2023-02-18T12:45:42.764Z,11.70
2023-02-18T12:48:32.748Z,11.80
2023-02-18T12:51:25.354Z,11.70
2023-02-18T12:54:19.722Z,11.60
2023-02-18T12:57:14.792Z,11.50
2023-02-18T13:00:05.512Z,11.50
2023-02-18T13:03:02.270Z,11.40
2023-02-18T13:05:39.411Z,11.40
2023-02-18T13:08:29.652Z,11.40
2023-02-18T13:11:10.738Z,11.40
2023-02-18T13:13:44.188Z,11.40
2023-02-18T13:16:15.074Z,11.40
2023-02-18T13:18:48.588Z,11.50
2023-02-18T13:21:18.137Z,11.70
2023-02-18T13:23:54.234Z,11.80
2023-02-18T13:26:26.141Z,11.80
2023-02-18T13:29:08.002Z,11.80
2023-02-18T13:31:44.187Z,11.70
2023-02-18T13:34:18.425Z,11.70
2023-02-18T13:36:55.817Z,11.60
2023-02-18T13:39:25.311Z,11.60
2023-02-18T13:42:11.529Z,11.60
2023-02-18T13:45:08.049Z,11.50
2023-02-18T13:47:41.158Z,11.60
2023-02-18T13:50:27.635Z,11.60
2023-02-18T13:53:19.270Z,11.50
2023-02-18T13:55:56.995Z,11.50
2023-02-18T13:58:30.977Z,11.60
2023-02-18T14:01:04.892Z,11.60
2023-02-18T14:03:38.276Z,11.60
2023-02-18T14:06:25.149Z,11.70
2023-02-18T14:09:03.887Z,11.70
2023-02-18T14:11:41.570Z,11.60
2023-02-18T14:14:38.574Z,11.70
2023-02-18T14:17:38.614Z,11.70
2023-02-18T14:20:32.950Z,11.70
2023-02-18T14:23:01.246Z,11.70
2023-02-18T14:25:37.706Z,11.70
2023-02-18T14:28:40.450Z,11.70
2023-02-18T14:31:31.178Z,11.70
2023-02-18T14:34:26.457Z,11.80
2023-02-18T14:37:03.602Z,11.90
2023-02-18T14:39:41.391Z,11.90
2023-02-18T14:42:21.265Z,11.90
2023-02-18T14:45:20.480Z,12.00
2023-02-18T14:48:23.652Z,12.00
2023-02-18T14:50:54.099Z,12.10
2023-02-18T14:53:24.731Z,12.10
2023-02-18T14:55:56.452Z,12.10
2023-02-18T14:58:32.645Z,12.20
2023-02-18T15:01:07.797Z,12.20
2023-02-18T15:03:36.033Z,12.20
2023-02-18T15:06:07.526Z,12.20
2023-02-18T15:08:40.488Z,12.10
2023-02-18T15:11:09.439Z,12.20
2023-02-18T15:13:43.943Z,12.20
2023-02-18T15:16:17.727Z,12.20
2023-02-18T15:18:52.839Z,12.20
2023-02-18T15:21:26.920Z,12.10
2023-02-18T15:23:55.270Z,12.00
2023-02-18T15:26:23.381Z,12.10
2023-02-18T15:28:59.550Z,12.00
2023-02-18T15:31:28.880Z,12.00
2023-02-18T15:33:57.553Z,11.90
2023-02-18T15:36:28.220Z,12.00
2023-02-18T15:38:58.743Z,11.90
2023-02-18T15:41:27.072Z,11.90
2023-02-18T15:43:57.859Z,11.90
2023-02-18T15:46:26.692Z,11.80
2023-02-18T15:48:57.139Z,11.90
2023-02-18T15:51:28.746Z,11.80
2023-02-18T15:53:59.770Z,11.90
2023-02-18T15:56:32.471Z,11.80
2023-02-18T15:59:11.307Z,11.80
2023-02-18T16:01:39.539Z,11.70
2023-02-18T16:04:08.546Z,11.60
2023-02-18T16:06:40.483Z,11.60
2023-02-18T16:09:16.992Z,11.50
2023-02-18T16:11:48.707Z,11.40
2023-02-18T16:14:29.688Z,11.40
2023-02-18T16:17:13.816Z,11.30
2023-02-18T16:20:03.337Z,11.30
2023-02-18T16:22:44.266Z,11.30
2023-02-18T16:25:20.676Z,11.30
2023-02-18T16:27:52.643Z,11.20
2023-02-18T16:30:23.595Z,11.10
2023-02-18T16:32:54.954Z,11.10
2023-02-18T16:35:24.156Z,11.10
2023-02-18T16:37:57.360Z,11.10
2023-02-18T16:40:29.278Z,11.00
2023-02-18T16:42:59.099Z,11.00
2023-02-18T16:45:35.588Z,11.00
2023-02-18T16:48:04.920Z,11.10
2023-02-18T16:50:34.615Z,11.10
2023-02-18T16:53:04.137Z,11.00
2023-02-18T16:55:32.368Z,11.00
2023-02-18T16:58:00.579Z,11.00
2023-02-18T17:00:28.753Z,11.00
2023-02-18T17:02:59.902Z,11.00
2023-02-18T17:05:29.850Z,11.00
2023-02-18T17:08:06.155Z,11.00
2023-02-18T17:10:36.576Z,11.00
2023-02-18T17:13:04.658Z,11.00
2023-02-18T17:15:35.505Z,11.10
2023-02-18T17:18:04.815Z,11.10
2023-02-18T17:20:34.289Z,11.00
2023-02-18T17:23:02.427Z,11.00
2023-02-18T17:25:33.145Z,11.00
2023-02-18T17:28:03.177Z,11.00
2023-02-18T17:30:32.984Z,11.00
2023-02-18T17:33:05.012Z,10.90
2023-02-18T17:35:33.540Z,10.80
2023-02-18T17:45:55.506Z,10.60
2023-02-18T17:48:23.687Z,10.50
2023-02-18T17:50:52.298Z,10.50
2023-02-18T17:53:20.721Z,10.50
2023-02-18T17:55:50.092Z,10.40
2023-02-18T17:58:18.465Z,10.40
2023-02-18T18:00:48.953Z,10.40
2023-02-18T18:03:19.068Z,10.40
2023-02-18T18:05:49.557Z,10.40
2023-02-18T18:08:18.153Z,10.40
2023-02-18T18:10:50.539Z,10.40
2023-02-18T18:13:22.527Z,10.40
2023-02-18T18:15:50.922Z,10.40
2023-02-18T18:18:21.137Z,10.40
2023-02-18T18:20:52.234Z,10.40
2023-02-18T18:23:22.872Z,10.40
2023-02-18T18:25:55.978Z,10.40
2023-02-18T18:28:26.893Z,10.40
2023-02-18T18:30:56.727Z,10.40
2023-02-18T18:33:28.371Z,10.40
2023-02-18T18:35:58.511Z,10.40
2023-02-18T18:38:28.245Z,10.40
2023-02-18T18:40:57.253Z,10.50
2023-02-18T18:43:34.332Z,10.40
2023-02-18T18:46:02.683Z,10.40
2023-02-18T18:48:32.187Z,10.50
2023-02-18T18:51:01.514Z,10.50
2023-02-18T18:53:31.226Z,10.40
2023-02-18T18:56:01.376Z,10.40
2023-02-18T18:58:29.546Z,10.40
2023-02-18T19:01:00.530Z,10.40
2023-02-18T19:03:33.661Z,10.30
2023-02-18T19:06:01.833Z,10.30
2023-02-18T19:08:31.921Z,10.30
2023-02-18T19:11:02.871Z,10.30
2023-02-18T19:13:36.804Z,10.40
2023-02-18T19:16:08.530Z,10.40
2023-02-18T19:18:38.198Z,10.50
2023-02-18T19:21:06.609Z,10.50
2023-02-18T19:23:36.462Z,10.50
2023-02-18T19:26:05.149Z,10.50
2023-02-18T19:28:33.327Z,10.50
2023-02-18T19:31:01.520Z,10.60
2023-02-18T19:33:29.839Z,10.50
2023-02-18T19:36:02.109Z,10.50
2023-02-18T19:38:30.332Z,10.50
2023-02-18T19:40:58.394Z,10.50
2023-02-18T19:43:26.515Z,10.50
2023-02-18T19:45:56.621Z,10.50
2023-02-18T19:48:24.809Z,10.50
2023-02-18T19:50:54.651Z,10.60
2023-02-18T19:53:24.116Z,10.60
2023-02-18T19:56:00.726Z,10.50
2023-02-18T19:58:30.853Z,10.50
2023-02-18T20:01:00.914Z,10.50
2023-02-18T20:03:29.435Z,10.60
2023-02-18T20:05:57.594Z,10.60
2023-02-18T20:08:27.269Z,10.60
2023-02-18T20:10:58.741Z,10.60
2023-02-18T20:13:27.062Z,10.60
2023-02-18T20:15:55.321Z,10.60
2023-02-18T20:18:23.389Z,10.60
2023-02-18T20:20:52.315Z,10.60
2023-02-18T20:23:20.460Z,10.60
2023-02-18T20:25:49.963Z,10.60
2023-02-18T20:28:18.114Z,10.60
2023-02-18T20:30:46.235Z,10.70
2023-02-18T20:33:14.356Z,10.70
2023-02-18T20:35:42.437Z,10.70
2023-02-18T20:38:10.504Z,10.70
2023-02-18T20:40:38.628Z,10.70
2023-02-18T20:43:08.118Z,10.70
2023-02-18T20:45:36.356Z,10.70
2023-02-18T20:48:04.618Z,10.70
2023-02-18T20:50:32.823Z,10.70
2023-02-18T20:53:01.033Z,10.70
2023-02-18T20:55:29.138Z,10.70
2023-02-18T20:57:57.333Z,10.70
2023-02-18T21:00:26.821Z,10.70
2023-02-18T21:02:55.080Z,10.70
2023-02-18T21:05:23.295Z,10.70
2023-02-18T21:07:51.394Z,10.70
2023-02-18T21:10:21.250Z,10.60
2023-02-18T21:12:49.463Z,10.60
2023-02-18T21:15:17.685Z,10.60
2023-02-18T21:17:47.124Z,10.60
2023-02-18T21:20:15.297Z,10.60
2023-02-18T21:22:43.565Z,10.50
2023-02-18T21:25:13.169Z,10.60
2023-02-18T21:27:41.318Z,10.50
2023-02-18T21:30:10.635Z,10.50
2023-02-18T21:32:38.730Z,10.50
2023-02-18T21:35:08.528Z,10.50
2023-02-18T21:37:36.995Z,10.50
2023-02-18T21:40:08.646Z,10.50
2023-02-18T21:42:36.956Z,10.50
2023-02-18T21:45:05.767Z,10.50
2023-02-18T21:47:34.079Z,10.50
2023-02-18T21:50:02.383Z,10.50
2023-02-18T21:52:32.436Z,10.50
2023-02-18T21:55:00.602Z,10.40
2023-02-18T21:57:28.929Z,10.40
2023-02-18T21:59:57.081Z,10.40
2023-02-18T22:02:28.070Z,10.40
2023-02-18T22:04:56.246Z,10.40
2023-02-18T22:07:26.080Z,10.40
2023-02-18T22:09:56.346Z,10.40
2023-02-18T22:12:26.393Z,10.50
2023-02-18T22:14:54.564Z,10.50
2023-02-18T22:28:59.207Z,10.40
2023-02-18T22:31:29.475Z,10.40
2023-02-18T22:33:59.116Z,10.40
2023-02-18T22:36:28.534Z,10.50
2023-02-18T22:38:57.341Z,10.50
2023-02-18T22:41:26.910Z,10.50
2023-02-18T22:43:57.094Z,10.50
2023-02-18T22:46:25.377Z,10.60
2023-02-18T22:48:53.939Z,10.50
2023-02-18T22:51:25.170Z,10.50
2023-02-18T22:53:54.545Z,10.50
2023-02-18T22:56:24.481Z,10.50
2023-02-18T22:58:54.588Z,10.50
2023-02-18T23:01:26.600Z,10.50
2023-02-18T23:03:55.134Z,10.50
2023-02-18T23:06:24.300Z,10.50
2023-02-18T23:08:52.524Z,10.50
2023-02-18T23:11:21.354Z,10.50
2023-02-18T23:14:10.390Z,10.50
2023-02-18T23:16:54.103Z,10.50
2023-02-18T23:19:22.290Z,10.50
2023-02-18T23:21:50.482Z,10.50
2023-02-18T23:24:19.202Z,10.40
2023-02-18T23:26:47.386Z,10.50
2023-02-18T23:29:16.052Z,10.40
2023-02-18T23:31:45.792Z,10.40
2023-02-18T23:34:15.788Z,10.40
2023-02-18T23:36:46.037Z,10.40
2023-02-18T23:39:17.136Z,10.40
2023-02-18T23:41:45.542Z,10.40
2023-02-18T23:44:15.337Z,10.40
2023-02-18T23:46:45.626Z,10.40
2023-02-18T23:49:16.162Z,10.30
2023-02-18T23:51:44.500Z,10.30
2023-02-18T23:54:13.068Z,10.30
2023-02-18T23:56:41.602Z,10.30
2023-02-18T23:59:09.791Z,10.40
